Latest Weather Observations for Koolan Island / Koolan Central

IDW60801

Issued at 6:34 pm WST Thursday 28 January 2021 (issued every 10 minutes, with the page automatically refreshed every 10 minutes)

About weather observations | Map of weather stations | Latest weather observations for WA | Other Formats
Station Details ID: 503621 Name: KOOLAN ISLAND (KOOLAN CENTRAL AIRPORT) Lat: -16.12 Lon: 123.74 Height: 163.2 m
Data from the previous 72 hours. | See also: Recent months for locations in Western Australia
Date/Time
WST
Temp
°C
App
Temp
°C
Dew
Point
°C
Rel
Hum
%
Delta-T
°C
Wind Press
QNH
hPa
Press
MSL
hPa
Rain since
9am
mm
Dir  Spd
km/h
Gust
km/h
Spd
kts
Gust
kts
28/06:30pm 27.8 28.8 25.4 87 1.7 W 30 41 16 22 1001.6 1000.5 24.0
28/06:13pm 27.7 28.6 25.3 87 1.7 W 30 37 16 20 1001.5 - 24.0
28/06:00pm 27.8 28.9 25.6 88 1.6 WSW 30 43 16 23 1001.6 - 24.0
28/05:37pm 27.0 29.3 25.6 92 1.0 W 24 35 13 19 1001.3 - 23.8
28/05:32pm 26.7 29.9 25.8 95 0.6 W 20 30 11 16 1001.4 - 23.8
28/05:30pm 26.5 29.5 25.6 95 0.6 W 20 30 11 16 1001.4 - 23.8
28/05:00pm 26.0 29.7 25.1 95 0.6 S 15 19 8 10 1001.9 1001.0 16.2
28/04:30pm 26.3 29.6 25.1 93 0.8 SSE 17 24 9 13 1001.7 1000.6 11.4
28/04:17pm 26.2 29.3 24.8 92 1.0 SSE 17 24 9 13 1001.6 - 10.6
28/04:15pm 26.3 29.6 24.5 90 1.3 SE 15 24 8 13 1001.7 - 10.6
28/04:00pm 27.9 30.7 25.3 86 1.8 W 20 33 11 18 1001.5 - 10.2
28/03:58pm 27.8 30.6 25.2 86 1.8 W 20 32 11 17 1001.5 - 10.2
28/03:38pm 28.1 30.8 25.1 84 2.1 WSW 20 32 11 17 1001.6 - 9.0
28/03:30pm 28.2 30.3 25.4 85 2.0 W 24 35 13 19 1001.3 - 9.0
28/03:00pm 28.5 29.3 25.7 85 2.0 W 32 41 17 22 1000.9 - 9.0
28/02:30pm 28.5 30.2 25.9 86 1.9 W 28 37 15 20 1001.2 - 9.0
28/02:10pm 28.3 30.8 25.9 87 1.7 W 24 32 13 17 1001.7 - 9.0
28/02:00pm 28.0 31.5 25.4 86 1.8 W 17 28 9 15 1001.7 - 9.0
28/01:52pm 27.1 31.5 25.1 89 1.4 WSW 11 22 6 12 1002.0 - 9.0
28/01:39pm 27.5 31.2 25.1 87 1.7 W 15 20 8 11 1002.3 - 8.6
28/01:30pm 27.2 31.6 25.0 88 1.5 W 11 17 6 9 1002.5 - 8.6
28/01:27pm 27.1 31.0 24.9 88 1.5 W 13 19 7 10 1002.5 - 8.6
28/01:00pm 26.4 30.4 24.4 89 1.4 W 11 17 6 9 1002.7 - 8.6
28/12:54pm 26.0 29.6 24.4 91 1.1 WSW 13 19 7 10 1002.9 - 8.6
28/12:30pm 25.4 28.3 23.8 91 1.1 SW 15 20 8 11 1003.5 - 5.0
28/12:16pm 27.3 30.9 24.4 84 2.0 WSW 13 17 7 9 1003.6 - 1.0
28/12:00pm 27.7 32.5 24.5 83 2.2 NW 7 11 4 6 1003.7 - 0.6
28/11:30am 27.4 32.9 24.1 82 2.3 NNE 2 6 1 3 1004.3 - 0.6
28/11:00am 27.4 31.2 23.4 79 2.8 S 9 15 5 8 1004.6 - 0.4
28/10:30am 27.5 30.0 23.1 77 3.0 S 15 19 8 10 1004.8 - 0.0
28/10:00am 27.6 31.3 22.5 74 3.5 SSW 7 13 4 7 1004.6 - 0.0
28/09:30am 27.5 30.2 22.9 76 3.1 SSW 13 20 7 11 1004.4 - 0.0
28/09:00am 27.2 29.4 23.2 79 2.8 SSW 17 20 9 11 1004.1 - 15.6
28/08:30am 26.7 28.6 22.1 76 3.1 SW 15 20 8 11 1003.7 - 15.6
28/08:00am 26.6 28.5 21.4 73 3.5 SSW 13 19 7 10 1003.5 - 15.6
28/07:30am 26.1 27.6 21.3 75 3.2 SSW 15 20 8 11 1003.4 - 15.6
28/07:00am 25.6 26.2 21.3 77 2.9 SW 20 26 11 14 1003.0 - 15.6
28/06:30am 25.9 27.4 21.3 76 3.1 SW 15 20 8 11 1002.9 - 15.6
28/06:00am 26.7 27.6 20.8 70 3.9 SSW 17 24 9 13 1002.6 - 15.6
28/05:30am 26.1 26.5 20.7 72 3.6 S 19 24 10 13 1002.2 - 15.6
28/05:00am 25.6 25.9 20.4 73 3.4 S 19 30 10 16 1002.3 - 15.4
28/04:30am 24.4 25.0 21.1 82 2.2 S 19 22 10 12 1002.4 - 15.4
28/04:00am 24.2 25.4 21.5 85 1.8 S 17 20 9 11 1002.7 - 15.4
28/03:30am 23.8 25.5 21.7 88 1.4 S 15 20 8 11 1003.1 - 15.4
28/03:00am 23.5 24.2 21.6 89 1.3 SSW 20 24 11 13 1003.3 - 15.2
28/02:30am 23.6 25.3 21.7 89 1.3 SSW 15 19 8 10 1003.7 - 15.2
28/02:00am 23.4 23.6 21.3 88 1.4 S 22 32 12 17 1003.7 - 14.8
28/01:30am 24.0 23.9 21.5 86 1.7 SSW 24 41 13 22 1003.9 - 14.4
28/01:19am 24.7 24.5 21.2 81 2.3 SSW 24 43 13 23 1004.0 - 14.4
28/01:00am 24.2 26.0 22.5 90 1.1 S 17 24 9 13 1003.9 - 14.4
28/12:30am 23.8 24.5 22.2 91 1.1 S 22 32 12 17 1003.6 - 13.0
28/12:23am 23.4 23.1 22.6 95 0.5 SSE 28 43 15 23 1003.7 - 12.2
28/12:08am 24.1 20.7 22.5 91 1.1 SE 44 56 24 30 1003.6 1002.8 5.8
28/12:00am 26.0 23.3 21.9 78 2.8 SSE 39 52 21 28 1003.9 - 5.8
 
Date/Time
WST
Temp
°C
App
Temp
°C
Dew
Point
°C
Rel
Hum
%
Delta-T
°C
Wind Press
QNH
hPa
Press
MSL
hPa
Rain since
9am
mm
Dir  Spd
km/h
Gust
km/h
Spd
kts
Gust
kts
27/11:55pm 27.1 25.9 22.3 75 3.3 SSE 32 52 17 28 1003.8 - 5.8
27/11:30pm 27.8 29.8 24.6 83 2.2 WSW 22 33 12 18 1003.0 - 5.8
27/11:00pm 27.9 29.5 24.5 82 2.4 WSW 24 35 13 19 1003.4 - 5.8
27/10:30pm 28.0 28.6 24.2 80 2.6 WSW 28 35 15 19 1003.7 - 5.8
27/10:00pm 28.0 29.7 24.6 82 2.4 WSW 24 32 13 17 1003.8 - 5.8
27/09:30pm 28.0 28.6 24.8 83 2.2 WSW 30 39 16 21 1003.5 - 5.8
27/09:00pm 27.8 29.3 25.0 85 2.0 WSW 26 35 14 19 1003.4 - 5.8
27/08:30pm 27.8 29.6 24.8 84 2.1 WSW 24 32 13 17 1003.1 - 5.8
27/08:02pm 27.8 29.3 25.0 85 2.0 WSW 26 35 14 19 1003.1 - 5.8
27/08:00pm 27.8 28.9 25.0 85 2.0 WSW 28 37 15 20 1003.0 - 5.8
27/07:30pm 27.7 28.1 25.1 86 1.8 WSW 32 43 17 23 1002.5 - 5.8
27/07:10pm 27.8 28.9 25.0 85 2.0 WSW 28 35 15 19 1002.4 - 5.8
27/07:00pm 27.8 29.2 24.8 84 2.1 WSW 26 37 14 20 1002.3 - 5.8
27/06:30pm 27.9 29.4 24.9 84 2.1 WSW 26 33 14 18 1001.9 - 5.8
27/06:00pm 27.9 29.5 24.5 82 2.4 WSW 24 33 13 18 1001.8 - 5.8
27/05:30pm 28.0 29.3 24.0 79 2.8 WSW 24 32 13 17 1001.5 - 5.8
27/05:00pm 28.1 29.0 23.9 78 2.9 WSW 26 35 14 19 1001.3 - 5.8
27/04:30pm 28.4 29.7 24.0 77 3.1 WSW 24 35 13 19 1001.2 - 5.8
27/04:00pm 28.2 29.1 22.7 72 3.8 WSW 22 30 12 16 1001.1 - 5.8
27/03:30pm 28.3 29.9 23.2 74 3.5 WSW 20 26 11 14 1001.1 - 5.8
27/03:00pm 27.8 30.7 24.4 82 2.4 WSW 17 24 9 13 1001.3 - 5.8
27/02:30pm 27.5 29.4 23.5 79 2.8 W 19 22 10 12 1001.4 - 5.8
27/02:00pm 26.7 30.0 23.2 81 2.4 WSW 11 13 6 7 1001.7 - 5.8
27/01:30pm 26.8 29.8 22.6 78 2.9 WSW 11 15 6 8 1001.7 - 5.8
27/01:00pm 25.6 29.1 22.9 85 1.8 SW 9 13 5 7 1002.1 - 5.8
27/12:30pm 24.9 27.8 21.8 83 2.1 SSW 9 13 5 7 1002.5 - 5.8
27/12:00pm 25.6 28.4 21.5 78 2.7 S 9 11 5 6 1003.1 - 5.8
27/11:30am 24.2 26.2 21.5 85 1.8 S 13 17 7 9 1004.0 - 5.6
27/11:00am 23.7 25.2 21.2 86 1.7 S 15 19 8 10 1004.5 - 5.6
27/10:30am 23.0 25.3 22.0 94 0.7 S 13 19 7 10 1005.5 - 5.4
27/10:00am 22.9 24.2 21.7 93 0.8 SE 17 22 9 12 1006.2 - 4.2
27/09:33am 23.0 23.9 21.6 92 0.9 SE 19 22 10 12 1006.6 - 2.2
27/09:30am 22.9 23.8 21.5 92 0.9 SE 19 22 10 12 1006.6 - 1.8
27/09:00am 22.2 23.1 21.5 96 0.5 SE 19 28 10 15 1006.7 - 12.4
27/08:30am 22.1 18.3 21.6 97 0.3 SE 44 57 24 31 1006.4 - 5.4
27/08:16am 24.5 23.6 23.1 92 1.0 ESE 33 56 18 30 1006.5 - 0.2
27/08:15am 24.8 24.3 23.6 93 0.8 ESE 32 46 17 25 1006.5 - 0.2
27/08:00am 24.7 25.0 22.9 90 1.2 E 26 37 14 20 1006.1 - 0.2
27/07:30am 24.3 25.1 23.1 93 0.8 E 24 35 13 19 1005.1 - 0.0
27/07:00am 24.5 24.5 23.1 92 1.0 E 28 43 15 23 1004.5 - 0.0
27/06:39am 25.0 25.8 23.2 90 1.2 E 24 44 13 24 1004.4 - 0.0
27/06:30am 28.0 31.4 24.0 79 2.8 SE 13 17 7 9 1004.5 - 0.0
27/06:00am 28.1 30.7 23.9 78 2.9 SW 17 20 9 11 1003.8 - 0.0
27/05:30am 28.0 29.9 23.8 78 2.9 WSW 20 26 11 14 1002.7 - 0.0
27/05:00am 28.0 29.5 24.4 81 2.5 WSW 24 32 13 17 1002.3 - 0.0
27/04:30am 27.9 28.8 23.9 79 2.8 W 26 35 14 19 1001.8 - 0.0
27/04:00am 27.9 29.1 23.9 79 2.8 WSW 24 33 13 18 1002.0 - 0.0
27/03:30am 27.9 28.3 23.7 78 2.9 WSW 28 35 15 19 1001.9 - 0.0
27/03:00am 27.8 28.4 24.2 81 2.5 WSW 28 35 15 19 1001.7 - 0.0
27/02:30am 27.9 28.5 24.1 80 2.6 W 28 37 15 20 1001.7 - 0.0
27/02:00am 28.0 29.3 24.0 79 2.8 WSW 24 32 13 17 1002.0 - 0.0
27/01:30am 28.1 28.0 23.5 76 3.2 W 30 35 16 19 1002.0 - 0.0
27/01:00am 28.1 28.6 23.9 78 2.9 W 28 33 15 18 1002.4 - 0.0
27/12:30am 28.1 29.8 24.1 79 2.8 W 22 32 12 17 1002.9 - 0.0
27/12:00am 28.2 29.6 24.2 79 2.8 W 24 32 13 17 1003.2 - 0.0
 
Date/Time
WST
Temp
°C
App
Temp
°C
Dew
Point
°C
Rel
Hum
%
Delta-T
°C
Wind Press
QNH
hPa
Press
MSL
hPa
Rain since
9am
mm
Dir  Spd
km/h
Gust
km/h
Spd
kts
Gust
kts
26/11:30pm 28.3 29.4 24.3 79 2.8 W 26 35 14 19 1003.3 - 0.0
26/11:00pm 28.3 29.2 23.4 75 3.4 W 24 32 13 17 1003.4 - 0.0
26/10:30pm 28.4 29.4 23.5 75 3.4 W 24 33 13 18 1003.7 - 0.0
26/10:00pm 28.4 29.3 24.0 77 3.1 W 26 33 14 18 1003.7 - 0.0
26/09:30pm 28.4 29.3 24.0 77 3.1 W 26 33 14 18 1003.5 - 0.0
26/09:00pm 28.5 28.4 23.6 75 3.4 WSW 30 41 16 22 1003.1 - 0.0
26/08:30pm 28.5 28.6 23.9 76 3.2 W 30 37 16 20 1003.1 - 0.0
26/08:00pm 28.6 28.7 23.9 75 3.3 W 30 39 16 21 1002.9 - 0.0
26/07:30pm 28.7 28.6 24.3 77 3.1 WSW 32 41 17 22 1002.6 - 0.0
26/07:00pm 28.6 28.0 23.3 73 3.7 W 32 41 17 22 1001.9 - 0.0
26/06:30pm 29.0 28.0 23.0 70 4.1 W 33 41 18 22 1001.8 - 0.0
26/06:00pm 29.2 28.3 23.2 70 4.1 W 33 41 18 22 1001.7 - 0.0
26/05:30pm 29.7 28.9 23.4 69 4.4 W 33 41 18 22 1001.5 - 0.0
26/05:00pm 30.0 30.6 24.2 71 4.1 W 28 37 15 20 1001.6 - 0.0
26/04:30pm 30.4 31.2 23.8 68 4.6 W 26 35 14 19 1001.7 - 0.0
26/04:00pm 30.8 31.7 24.0 67 4.8 W 26 33 14 18 1001.9 - 0.0
26/03:30pm 30.8 31.7 24.0 67 4.8 W 26 37 14 20 1001.9 - 0.0
26/03:00pm 31.3 32.0 23.7 64 5.3 W 26 33 14 18 1001.9 - 0.0
26/02:30pm 30.8 31.4 23.5 65 5.1 W 26 33 14 18 1002.2 - 0.0
26/02:00pm 31.1 31.2 23.2 63 5.5 W 28 35 15 19 1002.4 - 0.0
26/01:30pm 30.7 31.6 24.6 70 4.3 W 28 41 15 22 1002.5 - 0.0
26/01:00pm 31.1 31.9 24.5 68 4.7 W 28 37 15 20 1002.9 - 0.0
26/12:30pm 30.9 32.1 24.5 68 4.5 W 26 33 14 18 1003.2 - 0.0
26/12:00pm 30.9 32.3 24.8 70 4.3 W 26 33 14 18 1003.7 - 0.0
26/11:30am 30.1 31.4 24.7 73 3.8 W 26 33 14 18 1004.0 - 0.0
26/11:00am 30.2 32.3 25.3 75 3.5 W 24 32 13 17 1004.5 - 0.0
26/10:30am 30.4 31.9 25.5 75 3.5 W 28 35 15 19 1004.6 - 0.0
26/10:00am 30.3 31.5 25.1 73 3.7 W 28 39 15 21 1004.8 - 0.0
26/09:30am 30.1 31.1 24.7 73 3.8 W 28 35 15 19 1005.0 - 0.0
26/09:00am 29.5 30.6 24.4 74 3.6 WSW 26 35 14 19 1005.1 - 0.0
26/08:30am 29.0 29.7 24.3 76 3.3 WSW 28 37 15 20 1005.0 - 0.0
26/08:00am 28.5 29.8 24.7 80 2.7 WSW 26 35 14 19 1004.9 - 0.0
26/07:30am 28.4 28.9 24.6 80 2.7 W 30 39 16 21 1004.7 - 0.0
26/07:00am 28.3 29.3 24.7 81 2.5 W 28 35 15 19 1004.7 - 0.0
26/06:30am 28.3 30.0 24.7 81 2.5 W 24 32 13 17 1004.7 - 0.0
26/06:00am 28.1 29.6 24.3 80 2.7 W 24 32 13 17 1004.5 - 0.0
26/05:30am 28.0 29.8 24.8 83 2.2 W 24 30 13 16 1004.4 - 0.0
26/05:00am 28.0 30.4 24.6 82 2.4 W 20 26 11 14 1004.2 - 0.0
26/04:30am 27.9 30.2 24.5 82 2.4 W 20 28 11 15 1003.9 - 0.0
26/04:00am 28.0 30.2 24.2 80 2.7 W 20 30 11 16 1003.8 - 0.0
26/03:30am 28.0 29.9 23.8 78 2.9 W 20 28 11 15 1003.9 - 0.0
26/03:00am 28.1 29.2 24.3 80 2.7 W 26 32 14 17 1003.9 - 0.0
26/02:30am 28.1 30.6 24.7 82 2.4 W 20 30 11 16 1003.9 - 0.0
26/02:00am 28.0 30.7 24.8 83 2.3 WSW 19 30 10 16 1004.1 - 0.0
26/01:30am 28.0 29.9 24.4 81 2.5 WSW 22 30 12 16 1004.2 - 0.0
26/01:00am 28.2 29.5 24.0 78 2.9 WSW 24 35 13 19 1004.2 - 0.0
26/12:30am 28.2 29.1 24.6 81 2.5 W 28 37 15 20 1004.3 - 0.0
26/12:00am 28.2 28.6 24.4 80 2.7 W 30 39 16 21 1004.1 - 0.0
 
Date/Time
WST
Temp
°C
App
Temp
°C
Dew
Point
°C
Rel
Hum
%
Delta-T
°C
Wind Press
QNH
hPa
Press
MSL
hPa
Rain since
9am
mm
Dir  Spd
km/h
Gust
km/h
Spd
kts
Gust
kts
25/11:30pm 28.2 29.2 24.8 82 2.4 W 28 37 15 20 1004.6 - 0.0
25/11:00pm 28.4 28.7 24.8 81 2.5 W 32 41 17 22 1005.1 - 0.0
25/10:30pm 28.4 28.2 25.0 82 2.4 W 35 43 19 23 1005.4 - 0.0
25/10:15pm 28.5 28.6 25.5 84 2.1 WSW 35 43 19 23 1005.5 - 0.0
25/10:00pm 28.6 28.5 25.2 82 2.4 W 35 43 19 23 1005.6 - 0.0
25/09:57pm 28.6 29.0 25.4 83 2.3 WSW 33 41 18 22 1005.7 - 0.0
25/09:30pm 28.6 30.0 25.4 83 2.3 W 28 33 15 18 1005.8 - 0.0
25/09:00pm 28.7 29.6 25.3 82 2.4 W 30 43 16 23 1005.4 - 0.0
25/08:30pm 28.6 31.0 25.8 85 2.0 W 24 33 13 18 1005.3 - 0.0
25/08:00pm 28.8 30.2 25.4 82 2.4 W 28 37 15 20 1005.1 - 0.0
25/07:30pm 28.9 30.9 25.7 83 2.3 W 26 37 14 20 1004.7 - 0.0
25/07:00pm 28.9 30.1 25.7 83 2.3 W 30 41 16 22 1004.5 - 0.0
25/06:45pm 29.0 30.5 25.6 82 2.4 WSW 28 41 15 22 1004.3 - 0.0

Other formats

Comma delimited format used in spreadsheet applications
http://www.bom.gov.au/fwo/IDW60801/IDW60801.99200.axf

JavaScript Object Notation format (JSON) in row-major order
http://www.bom.gov.au/fwo/IDW60801/IDW60801.99200.json

Data quality

Most of these data are generated automatically and are frequently updated. Quality checks on data are not normally performed. It is possible for incorrect values to appear. Refer to information at About Latest Weather Observations and please check the disclaimer before using these data.